Rhosgoch, United Kingdom
Current Conditions -  °F | °C
As of 12:50 AM on Friday 19 Dec 2014 (Local Time) from EGOV Reporting Station
Broken Clouds Broken Clouds  
Wind Chill: 42°   Ceiling: 3000
Heat Index: 48°   Visibility: 6mi
Dew Point: 43°   Wind: 17mph
Humidity: 82%   Direction: 280°W
Pressure: 29.71"   Gusts: NA
Location:  53.38°N, 4.39°W
Report Text: EGOV 190050Z AUTO 28015KT 9999 FEW026/// BKN030/// 09/06 Q1006
Loading
Personal Weather Stations






























Interactive Weather Map New forecast layout! Learn more

10-Day Weather Forecast

Advertisements
Track Severe Weather on mobile